createdAt,value
2022-08-12T00:00:53.121Z,99845.41
2022-08-12T00:03:38.850Z,99850.66
2022-08-12T00:06:25.513Z,99851.09
2022-08-12T00:09:11.311Z,99852.72
2022-08-12T00:11:57.223Z,99846.81
2022-08-12T00:14:42.755Z,99850.91
2022-08-12T00:17:28.266Z,99852.88
2022-08-12T00:20:13.848Z,99848.88
2022-08-12T00:23:00.171Z,99852.34
2022-08-12T00:26:20.978Z,99851.25
2022-08-12T00:29:10.179Z,99859.72
2022-08-12T00:31:55.774Z,99861.00
2022-08-12T00:34:41.061Z,99856.97
2022-08-12T00:37:27.706Z,99853.31
2022-08-12T00:40:14.576Z,99851.00
2022-08-12T00:42:42.583Z,99847.84
2022-08-12T00:45:10.367Z,99848.22
2022-08-12T00:47:38.450Z,99844.94
2022-08-12T00:50:06.749Z,99844.94
2022-08-12T00:52:35.178Z,99851.16
2022-08-12T00:55:04.272Z,99850.81
2022-08-12T00:57:37.448Z,99840.66
2022-08-12T01:00:14.688Z,99849.97
2022-08-12T01:02:46.429Z,99853.13
2022-08-12T01:05:34.995Z,99852.28
2022-08-12T01:08:20.850Z,99856.47
2022-08-12T01:11:06.979Z,99862.06
2022-08-12T01:13:36.348Z,99865.28
2022-08-12T01:16:05.817Z,99854.75
2022-08-12T01:18:36.226Z,99854.88
2022-08-12T01:21:27.756Z,99870.16
2022-08-12T01:24:28.023Z,99868.94
2022-08-12T01:26:59.851Z,99874.19
2022-08-12T01:29:32.867Z,99877.22
2022-08-12T01:32:05.523Z,99881.72
2022-08-12T01:34:39.502Z,99874.50
2022-08-12T01:37:09.086Z,99880.34
2022-08-12T01:40:31.677Z,99875.91
2022-08-12T01:42:43.398Z,99875.66
2022-08-12T01:45:12.444Z,99874.78
2022-08-12T01:47:54.578Z,99863.19
2022-08-12T01:51:06.548Z,99868.56
2022-08-12T01:53:51.697Z,99863.59
2022-08-12T01:56:24.582Z,99857.88
2022-08-12T01:59:15.762Z,99859.06
2022-08-12T02:01:45.717Z,99868.38
2022-08-12T02:04:43.327Z,99868.97
2022-08-12T02:07:56.312Z,99864.38
2022-08-12T02:10:49.121Z,99862.53
2022-08-12T02:13:53.918Z,99860.50
2022-08-12T02:16:39.116Z,99866.84
2022-08-12T02:19:22.330Z,99868.09
2022-08-12T02:22:30.579Z,99862.97
2022-08-12T02:25:29.444Z,99858.66
2022-08-12T02:27:56.935Z,99862.06
2022-08-12T02:30:26.822Z,99860.28
2022-08-12T02:33:09.613Z,99863.69
2022-08-12T02:35:39.645Z,99866.03
2022-08-12T02:38:09.330Z,99859.75
2022-08-12T02:40:38.608Z,99857.84
2022-08-12T02:43:27.379Z,99854.88
2022-08-12T02:46:14.145Z,99856.34
2022-08-12T02:48:53.635Z,99855.22
2022-08-12T02:51:24.391Z,99851.06
2022-08-12T02:54:03.352Z,99856.72
2022-08-12T02:56:50.684Z,99858.66
2022-08-12T02:59:21.392Z,99850.22
2022-08-12T03:01:50.400Z,99860.16
2022-08-12T03:04:44.074Z,99851.81
2022-08-12T03:07:49.298Z,99854.38
2022-08-12T03:10:36.948Z,99850.19
2022-08-12T03:13:07.252Z,99847.63
2022-08-12T03:15:35.798Z,99837.47
2022-08-12T03:18:26.260Z,99842.00
2022-08-12T03:20:57.124Z,99840.63
2022-08-12T03:23:28.932Z,99845.13
2022-08-12T03:26:02.475Z,99844.56
2022-08-12T03:28:50.517Z,99841.34
2022-08-12T03:31:20.923Z,99839.16
2022-08-12T03:34:02.408Z,99841.72
2022-08-12T03:36:35.674Z,99847.59
2022-08-12T03:39:18.378Z,99853.63
2022-08-12T03:42:07.664Z,99839.78
2022-08-12T03:45:14.389Z,99840.66
2022-08-12T03:48:33.070Z,99841.81
2022-08-12T03:51:20.357Z,99856.19
2022-08-12T03:54:06.985Z,99850.09
2022-08-12T03:56:54.044Z,99841.25
2022-08-12T03:59:39.304Z,99844.66
2022-08-12T04:02:08.011Z,99844.78
2022-08-12T04:04:35.899Z,99836.81
2022-08-12T04:07:07.849Z,99846.88
2022-08-12T04:09:35.482Z,99851.91
2022-08-12T04:12:22.685Z,99853.38
2022-08-12T04:14:57.036Z,99863.97
2022-08-12T04:17:28.054Z,99865.81
2022-08-12T04:19:56.607Z,99872.00
2022-08-12T04:22:26.167Z,99867.31
2022-08-12T04:24:54.287Z,99871.34
2022-08-12T04:27:21.156Z,99874.75
2022-08-12T04:30:16.686Z,99870.91
2022-08-12T04:32:37.638Z,99872.81
2022-08-12T04:35:07.478Z,99873.72
2022-08-12T04:37:58.535Z,99872.50
2022-08-12T04:40:28.089Z,99871.19
2022-08-12T04:42:56.005Z,99866.97
2022-08-12T04:45:22.958Z,99867.78
2022-08-12T04:47:50.046Z,99868.50
2022-08-12T04:50:33.825Z,99872.34
2022-08-12T04:53:05.801Z,99867.69
2022-08-12T04:55:33.585Z,99863.63
2022-08-12T04:58:00.449Z,99851.16
2022-08-12T05:00:27.766Z,99859.31
2022-08-12T05:02:54.995Z,99865.53
2022-08-12T05:05:23.652Z,99867.69
2022-08-12T05:07:53.988Z,99866.84
2022-08-12T05:10:33.089Z,99868.78
2022-08-12T05:13:05.446Z,99869.56
2022-08-12T05:15:32.318Z,99868.81
2022-08-12T05:17:59.706Z,99865.88
2022-08-12T05:20:29.482Z,99859.47
2022-08-12T05:23:13.898Z,99870.94
2022-08-12T05:25:43.372Z,99865.22
2022-08-12T05:28:10.871Z,99866.00
2022-08-12T05:30:37.665Z,99860.72
2022-08-12T05:33:05.832Z,99858.66
2022-08-12T05:35:42.925Z,99860.13
2022-08-12T05:38:30.483Z,99848.50
2022-08-12T05:40:58.154Z,99844.78
2022-08-12T05:43:24.994Z,99847.84
2022-08-12T05:45:51.934Z,99848.69
2022-08-12T05:48:19.200Z,99848.44
2022-08-12T05:50:46.676Z,99841.75
2022-08-12T05:53:13.582Z,99839.84
2022-08-12T05:55:40.649Z,99830.47
2022-08-12T05:58:08.200Z,99829.34
2022-08-12T06:00:35.849Z,99830.47
2022-08-12T06:03:04.803Z,99831.63
2022-08-12T06:05:52.715Z,99842.00
2022-08-12T06:08:22.837Z,99832.97
2022-08-12T06:10:50.531Z,99829.78
2022-08-12T06:13:28.222Z,99823.19
2022-08-12T06:18:29.936Z,99851.81
2022-08-12T06:21:01.758Z,99857.00
2022-08-12T06:23:29.797Z,99849.28
2022-08-12T06:25:57.199Z,99848.38
2022-08-12T06:28:24.112Z,99850.63
2022-08-12T06:31:22.338Z,99847.91
2022-08-12T06:33:55.827Z,99856.59
2022-08-12T06:36:29.922Z,99860.63
2022-08-12T06:38:59.603Z,99867.88
2022-08-12T06:42:30.842Z,99870.91
2022-08-12T06:44:32.641Z,99860.47
2022-08-12T06:46:59.903Z,99867.81
2022-08-12T06:49:28.448Z,99859.03
2022-08-12T06:51:56.681Z,99865.53
2022-08-12T06:54:31.057Z,99860.84
2022-08-12T06:57:04.653Z,99856.09
2022-08-12T06:59:32.515Z,99851.53
2022-08-12T07:01:59.454Z,99847.56
2022-08-12T07:04:36.222Z,99841.78
2022-08-12T07:07:13.650Z,99842.19
2022-08-12T07:10:04.156Z,99837.97
2022-08-12T07:12:29.906Z,99833.75
2022-08-12T07:14:58.323Z,99831.09
2022-08-12T07:17:26.501Z,99834.84
2022-08-12T07:19:55.511Z,99833.41
2022-08-12T07:22:24.847Z,99853.25
2022-08-12T07:25:11.542Z,99841.78
2022-08-12T07:27:42.822Z,99853.19
2022-08-12T07:30:10.517Z,99845.31
2022-08-12T07:32:37.378Z,99844.22
2022-08-12T07:35:04.698Z,99845.78
2022-08-12T07:37:31.614Z,99842.31
2022-08-12T07:39:59.538Z,99844.88
2022-08-12T07:42:27.831Z,99841.31
2022-08-12T07:44:56.061Z,99838.91
2022-08-12T07:47:23.770Z,99830.78
2022-08-12T07:50:04.878Z,99826.56
2022-08-12T07:52:38.597Z,99827.41
2022-08-12T07:55:06.242Z,99828.47
2022-08-12T07:57:35.915Z,99825.22
2022-08-12T08:00:05.367Z,99820.47
2022-08-12T08:02:37.195Z,99808.22
2022-08-12T08:05:05.047Z,99813.50
2022-08-12T08:07:31.932Z,99799.66
2022-08-12T08:10:00.604Z,99805.53
2022-08-12T08:12:47.562Z,99797.78
2022-08-12T08:15:15.770Z,99786.88
2022-08-12T08:17:57.833Z,99799.94
2022-08-12T08:20:28.791Z,99790.84
2022-08-12T08:22:59.988Z,99799.41
2022-08-12T08:25:35.984Z,99788.06
2022-08-12T08:28:12.936Z,99785.16
2022-08-12T08:30:43.941Z,99789.25
2022-08-12T08:33:23.580Z,99787.59
2022-08-12T08:36:00.657Z,99800.44
2022-08-12T08:38:33.332Z,99803.44
2022-08-12T08:42:15.682Z,99814.38
2022-08-12T08:44:11.307Z,99823.94
2022-08-12T08:46:39.781Z,99821.09
2022-08-12T08:49:07.055Z,99820.75
2022-08-12T08:51:33.963Z,99813.91
2022-08-12T08:54:00.939Z,99816.03
2022-08-12T08:56:30.944Z,99808.81
2022-08-12T08:58:58.014Z,99820.50
2022-08-12T09:01:26.468Z,99805.00
2022-08-12T09:05:07.832Z,99809.81
2022-08-12T09:10:02.300Z,99809.03
2022-08-12T09:12:55.095Z,99807.84
2022-08-12T09:15:35.338Z,99800.78
2022-08-12T09:18:08.459Z,99802.94
2022-08-12T09:20:53.169Z,99802.06
2022-08-12T09:24:00.216Z,99804.50
2022-08-12T09:28:57.247Z,99786.53
2022-08-12T09:32:03.780Z,99783.56
2022-08-12T09:34:26.572Z,99790.13
2022-08-12T09:37:02.582Z,99793.84
2022-08-12T09:40:03.158Z,99802.94
2022-08-12T09:43:11.086Z,99797.41
2022-08-12T09:46:11.126Z,99795.41
2022-08-12T09:48:24.565Z,99785.69
2022-08-12T09:50:55.086Z,99801.03
2022-08-12T09:53:29.241Z,99801.47
2022-08-12T09:56:33.366Z,99804.25
2022-08-12T09:58:59.696Z,99817.81
2022-08-12T10:01:35.392Z,99813.91
2022-08-12T10:04:19.787Z,99817.19
2022-08-12T10:06:55.316Z,99821.81
2022-08-12T10:09:56.944Z,99821.31
2022-08-12T10:12:32.736Z,99820.78
2022-08-12T10:15:00.180Z,99820.75
2022-08-12T10:17:27.054Z,99827.06
2022-08-12T10:19:53.842Z,99809.97
2022-08-12T10:22:49.138Z,99825.25
2022-08-12T10:26:34.221Z,99813.09
2022-08-12T10:28:36.199Z,99815.81
2022-08-12T10:31:05.797Z,99803.81
2022-08-12T10:33:55.684Z,99795.19
2022-08-12T10:36:39.786Z,99798.88
2022-08-12T10:40:00.013Z,99811.78
2022-08-12T10:42:15.309Z,99813.38
2022-08-12T10:44:46.865Z,99806.47
2022-08-12T10:48:01.587Z,99805.31
2022-08-12T10:50:32.598Z,99803.41
2022-08-12T10:52:54.322Z,99805.72
2022-08-12T10:55:21.177Z,99805.00
2022-08-12T10:58:14.859Z,99803.97
2022-08-12T11:00:55.527Z,99803.38
2022-08-12T11:04:18.743Z,99809.16
2022-08-12T11:07:07.468Z,99821.03
2022-08-12T11:09:02.121Z,99833.28
2022-08-12T11:12:34.966Z,99829.97
2022-08-12T11:14:49.516Z,99837.19
2022-08-12T11:17:34.022Z,99835.97
2022-08-12T11:20:05.351Z,99831.47
2022-08-12T11:22:32.493Z,99849.78
2022-08-12T11:24:59.431Z,99848.44
2022-08-12T11:27:26.320Z,99834.81
2022-08-12T11:30:02.529Z,99848.34
2022-08-12T11:32:38.807Z,99850.38
2022-08-12T11:35:06.927Z,99840.31
2022-08-12T11:37:58.250Z,99835.88
2022-08-12T11:40:22.962Z,99836.75
2022-08-12T11:42:50.221Z,99839.84
2022-08-12T11:45:19.674Z,99838.84
2022-08-12T11:47:46.906Z,99834.63
2022-08-12T11:50:19.108Z,99834.81
2022-08-12T11:52:56.422Z,99822.09
2022-08-12T11:55:25.322Z,99811.59
2022-08-12T11:58:33.861Z,99806.31
2022-08-12T12:03:43.885Z,99824.16
2022-08-12T12:06:17.893Z,99822.09
2022-08-12T12:08:52.781Z,99840.81
2022-08-12T12:11:21.648Z,99832.66
2022-08-12T12:14:08.843Z,99837.56
2022-08-12T12:16:39.532Z,99838.69
2022-08-12T12:19:06.948Z,99845.63
2022-08-12T12:21:48.515Z,99835.44
2022-08-12T12:24:21.825Z,99828.69
2022-08-12T12:27:00.745Z,99827.38
2022-08-12T12:30:19.724Z,99848.41
2022-08-12T12:32:29.062Z,99840.44
2022-08-12T12:35:14.516Z,99847.06
2022-08-12T12:38:04.190Z,99840.13
2022-08-12T12:40:39.801Z,99838.09
2022-08-12T12:43:07.633Z,99845.72
2022-08-12T12:45:36.421Z,99845.06
2022-08-12T12:48:06.151Z,99842.16
2022-08-12T12:50:45.274Z,99840.13
2022-08-12T12:54:07.771Z,99830.44
2022-08-12T12:57:16.848Z,99822.91
2022-08-12T13:00:08.385Z,99826.47
2022-08-12T13:02:40.376Z,99831.66
2022-08-12T13:05:13.699Z,99829.50
2022-08-12T13:07:54.089Z,99834.66
2022-08-12T13:10:24.075Z,99836.63
2022-08-12T13:12:58.022Z,99829.53
2022-08-12T13:15:24.867Z,99837.50
2022-08-12T13:18:11.891Z,99843.41
2022-08-12T13:20:43.021Z,99834.00
2022-08-12T13:23:36.447Z,99822.94
2022-08-12T13:25:59.169Z,99830.97
2022-08-12T13:28:31.084Z,99834.56
2022-08-12T13:30:59.507Z,99829.97
2022-08-12T13:34:33.620Z,99830.25
2022-08-12T13:36:20.420Z,99826.66
2022-08-12T13:38:54.382Z,99830.19
2022-08-12T13:41:33.733Z,99825.13
2022-08-12T13:44:02.167Z,99834.28
2022-08-12T13:46:28.982Z,99843.94
2022-08-12T13:48:56.663Z,99833.72
2022-08-12T13:51:24.801Z,99828.63
2022-08-12T13:54:11.607Z,99828.94
2022-08-12T13:56:40.851Z,99817.97
2022-08-12T13:59:08.646Z,99817.38
2022-08-12T14:01:41.045Z,99816.56
2022-08-12T14:04:12.389Z,99814.78
2022-08-12T14:06:40.841Z,99823.09
2022-08-12T14:09:17.307Z,99813.56
2022-08-12T14:11:54.809Z,99819.63
2022-08-12T14:14:31.525Z,99826.22
2022-08-12T14:17:10.326Z,99832.38
2022-08-12T14:19:48.249Z,99828.66
2022-08-12T14:22:21.126Z,99845.47
2022-08-12T14:24:53.271Z,99835.19
2022-08-12T14:28:04.489Z,99839.44
2022-08-12T14:30:15.725Z,99840.81
2022-08-12T14:32:45.309Z,99825.56
2022-08-12T14:35:12.643Z,99832.69
2022-08-12T14:37:56.781Z,99823.44
2022-08-12T14:40:28.696Z,99828.94
2022-08-12T14:42:58.744Z,99830.13
2022-08-12T14:45:45.482Z,99826.94
2022-08-12T14:48:15.951Z,99823.53
2022-08-12T14:51:03.307Z,99820.03
2022-08-12T14:59:27.202Z,99791.78
2022-08-12T15:02:21.336Z,99790.06
2022-08-12T15:04:56.217Z,99790.03
2022-08-12T15:07:34.205Z,99776.78
2022-08-12T15:10:14.696Z,99781.72
2022-08-12T15:12:52.738Z,99774.41
2022-08-12T15:15:21.727Z,99771.84
2022-08-12T15:17:59.054Z,99779.41
2022-08-12T15:20:37.927Z,99793.41
2022-08-12T15:23:18.067Z,99800.84
2022-08-12T15:26:02.633Z,99808.69
2022-08-12T15:28:37.166Z,99814.97
2022-08-12T15:31:09.581Z,99807.53
2022-08-12T15:33:58.031Z,99811.75
2022-08-12T15:36:55.032Z,99802.91
2022-08-12T15:39:16.554Z,99805.63
2022-08-12T15:41:49.182Z,99797.75
2022-08-12T15:44:42.097Z,99794.84
2022-08-12T15:47:06.151Z,99794.31
2022-08-12T15:49:43.076Z,99789.53
2022-08-12T15:52:29.410Z,99782.53
2022-08-12T15:55:06.002Z,99776.81
2022-08-12T15:57:41.671Z,99764.28
2022-08-12T16:00:29.014Z,99749.72
2022-08-12T16:02:58.568Z,99758.06
2022-08-12T16:06:11.458Z,99757.44
2022-08-12T16:08:24.367Z,99758.97
2022-08-12T16:10:56.807Z,99746.25
2022-08-12T16:13:34.751Z,99747.09
2022-08-12T16:16:12.454Z,99744.72
2022-08-12T16:18:52.112Z,99735.75
2022-08-12T16:21:52.718Z,99736.91
2022-08-12T16:24:08.664Z,99747.22
2022-08-12T16:26:40.745Z,99751.78
2022-08-12T16:29:15.321Z,99743.78
2022-08-12T16:31:44.787Z,99749.66
2022-08-12T16:34:25.882Z,99749.41
2022-08-12T16:37:07.538Z,99737.00
2022-08-12T16:40:00.318Z,99736.41
2022-08-12T16:42:28.468Z,99730.59
2022-08-12T16:44:59.927Z,99731.84
2022-08-12T16:47:31.454Z,99732.50
2022-08-12T16:50:31.310Z,99739.69
2022-08-12T16:53:02.299Z,99736.72
2022-08-12T16:55:42.495Z,99733.66
2022-08-12T16:58:27.867Z,99737.00
2022-08-12T17:00:55.948Z,99736.94
2022-08-12T17:03:28.930Z,99734.22
2022-08-12T17:05:57.616Z,99730.13
2022-08-12T17:08:30.235Z,99724.88
2022-08-12T17:10:57.415Z,99717.91
2022-08-12T17:13:26.371Z,99721.47
2022-08-12T17:16:05.716Z,99730.91
2022-08-12T17:18:43.002Z,99729.84
2022-08-12T17:21:41.633Z,99729.69
2022-08-12T17:24:15.337Z,99730.81
2022-08-12T17:26:49.404Z,99722.88
2022-08-12T17:29:24.341Z,99728.44
2022-08-12T17:32:12.315Z,99725.66
2022-08-12T17:34:58.663Z,99728.75
2022-08-12T17:37:28.019Z,99729.91
2022-08-12T17:40:15.016Z,99718.38
2022-08-12T17:42:47.872Z,99724.59
2022-08-12T17:45:21.475Z,99722.13
2022-08-12T17:48:01.042Z,99739.94
2022-08-12T17:50:34.265Z,99738.19
2022-08-12T17:53:03.224Z,99735.00
2022-08-12T17:55:44.763Z,99736.63
2022-08-12T17:58:16.641Z,99745.66
2022-08-12T18:00:50.681Z,99726.34
2022-08-12T18:04:04.912Z,99741.66
2022-08-12T18:06:13.969Z,99750.22
2022-08-12T18:08:54.280Z,99753.53
2022-08-12T18:12:06.519Z,99752.03
2022-08-12T18:14:32.081Z,99744.06
2022-08-12T18:17:01.216Z,99741.03
2022-08-12T18:19:48.550Z,99745.44
2022-08-12T18:22:30.775Z,99738.34
2022-08-12T18:25:04.730Z,99747.28
2022-08-12T18:27:44.224Z,99749.84
2022-08-12T18:30:20.856Z,99752.09
2022-08-12T18:33:05.220Z,99750.84
2022-08-12T18:35:47.654Z,99739.09
2022-08-12T18:38:22.678Z,99743.19
2022-08-12T18:41:21.403Z,99745.75
2022-08-12T18:44:07.848Z,99753.09
2022-08-12T18:46:53.798Z,99748.38
2022-08-12T18:49:33.343Z,99748.59
2022-08-12T18:52:05.686Z,99757.97
2022-08-12T18:54:52.950Z,99745.97
2022-08-12T18:58:06.332Z,99757.50
2022-08-12T19:00:25.262Z,99758.09
2022-08-12T19:02:53.800Z,99744.97
2022-08-12T19:05:23.560Z,99751.38
2022-08-12T19:08:11.659Z,99748.00
2022-08-12T19:10:49.948Z,99749.84
2022-08-12T19:13:37.721Z,99747.53
2022-08-12T19:16:11.355Z,99744.44
2022-08-12T19:18:44.626Z,99735.59
2022-08-12T19:21:17.047Z,99732.78
2022-08-12T19:24:08.182Z,99730.88
2022-08-12T19:26:36.725Z,99731.78
2022-08-12T19:29:07.619Z,99736.31
2022-08-12T19:31:55.603Z,99733.09
2022-08-12T19:35:53.776Z,99738.88
2022-08-12T19:38:02.584Z,99737.44
2022-08-12T19:40:31.525Z,99740.81
2022-08-12T19:43:20.023Z,99737.81
2022-08-12T19:45:56.476Z,99740.44
2022-08-12T19:48:30.407Z,99748.31
2022-08-12T19:50:58.125Z,99733.09
2022-08-12T19:53:27.431Z,99743.66
2022-08-12T19:55:57.279Z,99744.09
2022-08-12T19:58:28.294Z,99735.59
2022-08-12T20:00:56.494Z,99742.28
2022-08-12T20:03:40.375Z,99739.06
2022-08-12T20:06:21.787Z,99734.81
2022-08-12T20:08:55.879Z,99723.28
2022-08-12T20:12:12.791Z,99714.34
2022-08-12T20:14:17.991Z,99715.03
2022-08-12T20:16:52.830Z,99707.31
2022-08-12T20:19:52.754Z,99698.53
2022-08-12T20:22:24.495Z,99697.94
2022-08-12T20:25:08.697Z,99689.28
2022-08-12T20:28:02.894Z,99685.97
2022-08-12T20:30:37.596Z,99685.81
2022-08-12T20:33:18.368Z,99684.50
2022-08-12T20:36:14.071Z,99679.75
2022-08-12T20:38:38.337Z,99684.34
2022-08-12T20:41:17.425Z,99683.91
2022-08-12T20:43:52.208Z,99677.88
2022-08-12T20:46:21.307Z,99679.66
2022-08-12T20:48:55.334Z,99680.91
2022-08-12T20:51:55.382Z,99676.91
2022-08-12T20:54:16.572Z,99672.72
2022-08-12T20:56:45.357Z,99674.41
2022-08-12T20:59:20.144Z,99675.75
2022-08-12T21:01:49.033Z,99673.28
2022-08-12T21:04:36.971Z,99679.38
2022-08-12T21:07:09.697Z,99688.31
2022-08-12T21:09:40.814Z,99680.78
2022-08-12T21:12:28.135Z,99681.28
2022-08-12T21:15:23.327Z,99685.84
2022-08-12T21:18:15.542Z,99679.91
2022-08-12T21:20:52.501Z,99672.41
2022-08-12T21:23:23.897Z,99673.44
2022-08-12T21:25:56.129Z,99678.84
2022-08-12T21:28:27.821Z,99688.09
2022-08-12T21:32:34.847Z,99699.44
2022-08-12T21:34:07.569Z,99723.72
2022-08-12T21:36:49.450Z,99717.47
2022-08-12T21:39:27.900Z,99749.38
2022-08-12T21:42:06.621Z,99750.28
2022-08-12T21:45:46.240Z,99757.25
2022-08-12T21:47:23.558Z,99765.47
2022-08-12T21:50:03.356Z,99755.03
2022-08-12T21:52:34.980Z,99752.69
2022-08-12T21:55:08.372Z,99759.28
2022-08-12T21:58:02.630Z,99770.22
2022-08-12T22:00:34.223Z,99772.53
2022-08-12T22:04:01.531Z,99768.09
2022-08-12T22:06:31.481Z,99753.50
2022-08-12T22:09:16.670Z,99759.88
2022-08-12T22:11:56.678Z,99775.13
2022-08-12T22:14:30.327Z,99767.22
2022-08-12T22:16:58.694Z,99765.88
2022-08-12T22:19:27.692Z,99771.91
2022-08-12T22:21:58.310Z,99772.38
2022-08-12T22:24:29.893Z,99768.84
2022-08-12T22:26:59.644Z,99752.22
2022-08-12T22:30:04.019Z,99758.34
2022-08-12T22:32:31.033Z,99755.06
2022-08-12T22:35:22.413Z,99748.09
2022-08-12T22:37:53.643Z,99746.53
2022-08-12T22:40:22.856Z,99737.72
2022-08-12T22:43:19.993Z,99744.38
2022-08-12T22:46:10.142Z,99734.97
2022-08-12T22:48:37.159Z,99733.56
2022-08-12T22:51:19.450Z,99735.63
2022-08-12T22:53:49.347Z,99728.81
2022-08-12T22:56:19.044Z,99716.34
2022-08-12T22:58:47.308Z,99704.88
2022-08-12T23:01:50.171Z,99697.91
2022-08-12T23:04:02.948Z,99680.25
2022-08-12T23:06:30.021Z,99700.16
2022-08-12T23:08:57.019Z,99693.22
2022-08-12T23:11:25.391Z,99690.66
2022-08-12T23:14:03.477Z,99684.53
2022-08-12T23:16:34.182Z,99670.38
2022-08-12T23:19:11.035Z,99652.53
2022-08-12T23:22:06.603Z,99651.84
2022-08-12T23:24:54.103Z,99657.34
2022-08-12T23:27:51.851Z,99666.25
2022-08-12T23:30:32.444Z,99687.03
2022-08-12T23:33:19.766Z,99708.06
2022-08-12T23:36:02.600Z,99709.59
2022-08-12T23:38:32.228Z,99730.97
2022-08-12T23:41:02.038Z,99739.53
2022-08-12T23:43:39.076Z,99738.91
2022-08-12T23:46:18.693Z,99727.78
2022-08-12T23:48:47.925Z,99717.78
2022-08-12T23:51:22.793Z,99720.34
2022-08-12T23:54:00.064Z,99706.63
2022-08-12T23:56:33.526Z,99709.19
2022-08-12T23:59:05.976Z,99708.06
